sensor_id;sensor_type;location;lat;lon;timestamp;temperature;humidity
65876;HTU21D;52657;51.128;5.938;2023-11-22T00:00:12;8.73;75.45
65876;HTU21D;52657;51.128;5.938;2023-11-22T00:02:39;8.70;75.55
65876;HTU21D;52657;51.128;5.938;2023-11-22T00:05:06;8.68;75.60
65876;HTU21D;52657;51.128;5.938;2023-11-22T00:07:34;8.68;75.44
65876;HTU21D;52657;51.128;5.938;2023-11-22T00:10:00;8.67;75.41
65876;HTU21D;52657;51.128;5.938;2023-11-22T00:12:27;8.66;75.34
65876;HTU21D;52657;51.128;5.938;2023-11-22T00:14:54;8.64;75.40
65876;HTU21D;52657;51.128;5.938;2023-11-22T00:17:19;8.64;75.30
65876;HTU21D;52657;51.128;5.938;2023-11-22T00:19:45;8.62;75.44
65876;HTU21D;52657;51.128;5.938;2023-11-22T00:22:11;8.60;75.41
65876;HTU21D;52657;51.128;5.938;2023-11-22T00:24:43;8.59;75.49
65876;HTU21D;52657;51.128;5.938;2023-11-22T00:27:11;8.62;75.34
65876;HTU21D;52657;51.128;5.938;2023-11-22T00:29:41;8.63;75.03
65876;HTU21D;52657;51.128;5.938;2023-11-22T00:32:06;8.64;74.82
65876;HTU21D;52657;51.128;5.938;2023-11-22T00:34:33;8.61;74.83
65876;HTU21D;52657;51.128;5.938;2023-11-22T00:36:58;8.59;74.68
65876;HTU21D;52657;51.128;5.938;2023-11-22T00:39:24;8.55;74.55
65876;HTU21D;52657;51.128;5.938;2023-11-22T00:41:50;8.50;74.54
65876;HTU21D;52657;51.128;5.938;2023-11-22T00:44:15;8.47;74.70
65876;HTU21D;52657;51.128;5.938;2023-11-22T00:46:42;8.44;74.83
65876;HTU21D;52657;51.128;5.938;2023-11-22T00:49:07;8.44;74.64
65876;HTU21D;52657;51.128;5.938;2023-11-22T00:51:36;8.41;74.70
65876;HTU21D;52657;51.128;5.938;2023-11-22T00:54:02;8.37;74.54
65876;HTU21D;52657;51.128;5.938;2023-11-22T00:56:27;8.28;74.76
65876;HTU21D;52657;51.128;5.938;2023-11-22T00:58:53;8.23;74.80
65876;HTU21D;52657;51.128;5.938;2023-11-22T01:01:22;8.18;74.96
65876;HTU21D;52657;51.128;5.938;2023-11-22T01:03:47;8.12;75.10
65876;HTU21D;52657;51.128;5.938;2023-11-22T01:06:13;8.05;75.18
65876;HTU21D;52657;51.128;5.938;2023-11-22T01:08:39;8.00;75.50
65876;HTU21D;52657;51.128;5.938;2023-11-22T01:11:06;7.92;75.81
65876;HTU21D;52657;51.128;5.938;2023-11-22T01:13:33;7.92;75.89
65876;HTU21D;52657;51.128;5.938;2023-11-22T01:16:10;7.92;75.83
65876;HTU21D;52657;51.128;5.938;2023-11-22T01:18:37;7.92;75.76
65876;HTU21D;52657;51.128;5.938;2023-11-22T01:21:02;7.94;75.57
65876;HTU21D;52657;51.128;5.938;2023-11-22T01:23:31;7.96;75.48
65876;HTU21D;52657;51.128;5.938;2023-11-22T01:25:58;7.93;75.56
65876;HTU21D;52657;51.128;5.938;2023-11-22T01:28:25;7.92;75.54
65876;HTU21D;52657;51.128;5.938;2023-11-22T01:30:53;7.90;75.53
65876;HTU21D;52657;51.128;5.938;2023-11-22T01:33:21;7.86;75.59
65876;HTU21D;52657;51.128;5.938;2023-11-22T01:35:46;7.81;75.99
65876;HTU21D;52657;51.128;5.938;2023-11-22T01:38:12;7.81;75.89
65876;HTU21D;52657;51.128;5.938;2023-11-22T01:40:47;7.81;75.86
65876;HTU21D;52657;51.128;5.938;2023-11-22T01:43:14;7.75;75.93
65876;HTU21D;52657;51.128;5.938;2023-11-22T01:45:41;7.64;76.28
65876;HTU21D;52657;51.128;5.938;2023-11-22T01:48:07;7.62;76.44
65876;HTU21D;52657;51.128;5.938;2023-11-22T01:50:37;7.59;76.63
65876;HTU21D;52657;51.128;5.938;2023-11-22T01:53:04;7.55;76.83
65876;HTU21D;52657;51.128;5.938;2023-11-22T01:55:30;7.54;76.74
65876;HTU21D;52657;51.128;5.938;2023-11-22T01:57:56;7.48;76.95
65876;HTU21D;52657;51.128;5.938;2023-11-22T02:00:24;7.46;77.05
65876;HTU21D;52657;51.128;5.938;2023-11-22T02:02:51;7.46;77.12
65876;HTU21D;52657;51.128;5.938;2023-11-22T02:05:16;7.47;77.15
65876;HTU21D;52657;51.128;5.938;2023-11-22T02:07:43;7.48;77.13
65876;HTU21D;52657;51.128;5.938;2023-11-22T02:10:09;7.42;77.36
65876;HTU21D;52657;51.128;5.938;2023-11-22T02:12:35;7.40;77.63
65876;HTU21D;52657;51.128;5.938;2023-11-22T02:15:02;7.42;77.39
65876;HTU21D;52657;51.128;5.938;2023-11-22T02:17:31;7.39;77.56
65876;HTU21D;52657;51.128;5.938;2023-11-22T02:19:57;7.40;77.56
65876;HTU21D;52657;51.128;5.938;2023-11-22T02:22:24;7.42;77.50
65876;HTU21D;52657;51.128;5.938;2023-11-22T02:24:49;7.44;77.46
65876;HTU21D;52657;51.128;5.938;2023-11-22T02:27:15;7.45;77.48
65876;HTU21D;52657;51.128;5.938;2023-11-22T02:29:41;7.46;77.50
65876;HTU21D;52657;51.128;5.938;2023-11-22T02:32:07;7.42;77.63
65876;HTU21D;52657;51.128;5.938;2023-11-22T02:34:33;7.45;77.69
65876;HTU21D;52657;51.128;5.938;2023-11-22T02:36:59;7.53;77.72
65876;HTU21D;52657;51.128;5.938;2023-11-22T02:39:41;7.61;77.44
65876;HTU21D;52657;51.128;5.938;2023-11-22T02:42:09;7.62;77.04
65876;HTU21D;52657;51.128;5.938;2023-11-22T02:44:34;7.58;77.39
65876;HTU21D;52657;51.128;5.938;2023-11-22T02:47:00;7.61;77.18
65876;HTU21D;52657;51.128;5.938;2023-11-22T02:49:25;7.59;77.00
65876;HTU21D;52657;51.128;5.938;2023-11-22T02:51:51;7.55;77.29
65876;HTU21D;52657;51.128;5.938;2023-11-22T02:54:17;7.53;77.08
65876;HTU21D;52657;51.128;5.938;2023-11-22T02:56:42;7.40;77.53
65876;HTU21D;52657;51.128;5.938;2023-11-22T02:59:08;7.38;77.89
65876;HTU21D;52657;51.128;5.938;2023-11-22T03:01:38;7.43;77.86
65876;HTU21D;52657;51.128;5.938;2023-11-22T03:04:08;7.41;77.82
65876;HTU21D;52657;51.128;5.938;2023-11-22T03:06:35;7.38;77.88
65876;HTU21D;52657;51.128;5.938;2023-11-22T03:09:02;7.30;78.09
65876;HTU21D;52657;51.128;5.938;2023-11-22T03:11:27;7.28;78.15
65876;HTU21D;52657;51.128;5.938;2023-11-22T03:13:53;7.26;78.38
65876;HTU21D;52657;51.128;5.938;2023-11-22T03:16:18;7.31;78.55
65876;HTU21D;52657;51.128;5.938;2023-11-22T03:18:44;7.34;78.47
65876;HTU21D;52657;51.128;5.938;2023-11-22T03:21:10;7.37;78.34
65876;HTU21D;52657;51.128;5.938;2023-11-22T03:23:36;7.34;77.76
65876;HTU21D;52657;51.128;5.938;2023-11-22T03:26:01;7.23;78.22
65876;HTU21D;52657;51.128;5.938;2023-11-22T03:28:27;7.23;78.49
65876;HTU21D;52657;51.128;5.938;2023-11-22T03:30:56;7.26;78.37
65876;HTU21D;52657;51.128;5.938;2023-11-22T03:33:21;7.19;78.50
65876;HTU21D;52657;51.128;5.938;2023-11-22T03:35:47;7.22;78.67
65876;HTU21D;52657;51.128;5.938;2023-11-22T03:38:13;7.23;78.38
65876;HTU21D;52657;51.128;5.938;2023-11-22T03:40:39;7.22;78.46
65876;HTU21D;52657;51.128;5.938;2023-11-22T03:43:06;7.16;78.04
65876;HTU21D;52657;51.128;5.938;2023-11-22T03:45:35;7.08;78.19
65876;HTU21D;52657;51.128;5.938;2023-11-22T03:48:01;7.03;78.42
65876;HTU21D;52657;51.128;5.938;2023-11-22T03:50:26;7.01;78.63
65876;HTU21D;52657;51.128;5.938;2023-11-22T03:52:52;7.08;78.66
65876;HTU21D;52657;51.128;5.938;2023-11-22T03:55:18;7.11;78.58
65876;HTU21D;52657;51.128;5.938;2023-11-22T03:57:43;7.10;78.47
65876;HTU21D;52657;51.128;5.938;2023-11-22T04:00:09;7.03;78.52
65876;HTU21D;52657;51.128;5.938;2023-11-22T04:02:38;7.04;78.79
65876;HTU21D;52657;51.128;5.938;2023-11-22T04:05:05;7.14;78.39
65876;HTU21D;52657;51.128;5.938;2023-11-22T04:07:32;7.07;78.48
65876;HTU21D;52657;51.128;5.938;2023-11-22T04:09:59;7.07;78.77
65876;HTU21D;52657;51.128;5.938;2023-11-22T04:12:24;7.12;78.69
65876;HTU21D;52657;51.128;5.938;2023-11-22T04:14:50;7.14;78.57
65876;HTU21D;52657;51.128;5.938;2023-11-22T04:17:17;7.14;78.55
65876;HTU21D;52657;51.128;5.938;2023-11-22T04:19:43;7.14;78.50
65876;HTU21D;52657;51.128;5.938;2023-11-22T04:22:09;7.16;78.47
65876;HTU21D;52657;51.128;5.938;2023-11-22T04:24:36;7.15;77.96
65876;HTU21D;52657;51.128;5.938;2023-11-22T04:27:01;7.11;78.03
65876;HTU21D;52657;51.128;5.938;2023-11-22T04:29:28;7.05;78.27
65876;HTU21D;52657;51.128;5.938;2023-11-22T04:31:53;7.04;78.33
65876;HTU21D;52657;51.128;5.938;2023-11-22T04:34:19;7.07;78.43
65876;HTU21D;52657;51.128;5.938;2023-11-22T04:36:45;7.13;78.34
65876;HTU21D;52657;51.128;5.938;2023-11-22T04:39:12;7.15;78.34
65876;HTU21D;52657;51.128;5.938;2023-11-22T04:41:38;7.15;78.21
65876;HTU21D;52657;51.128;5.938;2023-11-22T04:44:04;7.11;78.35
65876;HTU21D;52657;51.128;5.938;2023-11-22T04:46:30;7.12;78.14
65876;HTU21D;52657;51.128;5.938;2023-11-22T04:48:57;7.12;78.17
65876;HTU21D;52657;51.128;5.938;2023-11-22T04:51:23;7.09;77.95
65876;HTU21D;52657;51.128;5.938;2023-11-22T04:53:50;7.09;78.41
65876;HTU21D;52657;51.128;5.938;2023-11-22T04:56:17;7.13;78.10
65876;HTU21D;52657;51.128;5.938;2023-11-22T04:58:42;7.12;78.18
65876;HTU21D;52657;51.128;5.938;2023-11-22T05:01:08;7.17;78.18
65876;HTU21D;52657;51.128;5.938;2023-11-22T05:03:35;7.23;78.04
65876;HTU21D;52657;51.128;5.938;2023-11-22T05:06:00;7.26;77.90
65876;HTU21D;52657;51.128;5.938;2023-11-22T05:08:26;7.31;77.55
65876;HTU21D;52657;51.128;5.938;2023-11-22T05:10:53;7.28;77.57
65876;HTU21D;52657;51.128;5.938;2023-11-22T05:13:18;7.23;77.73
65876;HTU21D;52657;51.128;5.938;2023-11-22T05:15:44;7.25;77.75
65876;HTU21D;52657;51.128;5.938;2023-11-22T05:18:10;7.22;77.83
65876;HTU21D;52657;51.128;5.938;2023-11-22T05:20:35;7.22;77.80
65876;HTU21D;52657;51.128;5.938;2023-11-22T05:23:01;7.19;77.72
65876;HTU21D;52657;51.128;5.938;2023-11-22T05:25:27;7.13;77.60
65876;HTU21D;52657;51.128;5.938;2023-11-22T05:27:52;7.10;77.79
65876;HTU21D;52657;51.128;5.938;2023-11-22T05:30:18;7.11;78.01
65876;HTU21D;52657;51.128;5.938;2023-11-22T05:32:44;7.14;78.03
65876;HTU21D;52657;51.128;5.938;2023-11-22T05:35:10;7.14;77.93
65876;HTU21D;52657;51.128;5.938;2023-11-22T05:37:36;7.11;78.00
65876;HTU21D;52657;51.128;5.938;2023-11-22T05:40:03;7.14;77.92
65876;HTU21D;52657;51.128;5.938;2023-11-22T05:42:33;7.15;77.68
65876;HTU21D;52657;51.128;5.938;2023-11-22T05:45:01;7.08;77.68
65876;HTU21D;52657;51.128;5.938;2023-11-22T05:47:26;7.09;77.72
65876;HTU21D;52657;51.128;5.938;2023-11-22T05:49:52;7.11;77.66
65876;HTU21D;52657;51.128;5.938;2023-11-22T05:52:18;7.17;77.53
65876;HTU21D;52657;51.128;5.938;2023-11-22T05:54:45;7.18;77.43
65876;HTU21D;52657;51.128;5.938;2023-11-22T05:57:10;7.22;77.44
65876;HTU21D;52657;51.128;5.938;2023-11-22T05:59:36;7.26;77.20
65876;HTU21D;52657;51.128;5.938;2023-11-22T06:02:02;7.27;76.97
65876;HTU21D;52657;51.128;5.938;2023-11-22T06:04:27;7.29;76.93
65876;HTU21D;52657;51.128;5.938;2023-11-22T06:06:53;7.30;76.57
65876;HTU21D;52657;51.128;5.938;2023-11-22T06:09:19;7.28;76.68
65876;HTU21D;52657;51.128;5.938;2023-11-22T06:11:44;7.31;76.70
65876;HTU21D;52657;51.128;5.938;2023-11-22T06:14:10;7.33;76.68
65876;HTU21D;52657;51.128;5.938;2023-11-22T06:16:36;7.37;76.70
65876;HTU21D;52657;51.128;5.938;2023-11-22T06:19:01;7.37;76.69
65876;HTU21D;52657;51.128;5.938;2023-11-22T06:21:27;7.43;76.36
65876;HTU21D;52657;51.128;5.938;2023-11-22T06:23:53;7.43;76.45
65876;HTU21D;52657;51.128;5.938;2023-11-22T06:26:24;7.48;76.25
65876;HTU21D;52657;51.128;5.938;2023-11-22T06:28:49;7.50;76.22
65876;HTU21D;52657;51.128;5.938;2023-11-22T06:31:15;7.54;75.95
65876;HTU21D;52657;51.128;5.938;2023-11-22T06:33:41;7.55;75.61
65876;HTU21D;52657;51.128;5.938;2023-11-22T06:36:07;7.55;75.51
65876;HTU21D;52657;51.128;5.938;2023-11-22T06:38:34;7.55;75.32
65876;HTU21D;52657;51.128;5.938;2023-11-22T06:41:00;7.54;75.34
65876;HTU21D;52657;51.128;5.938;2023-11-22T06:43:26;7.54;75.46
65876;HTU21D;52657;51.128;5.938;2023-11-22T06:45:52;7.54;75.47
65876;HTU21D;52657;51.128;5.938;2023-11-22T06:48:17;7.56;75.46
65876;HTU21D;52657;51.128;5.938;2023-11-22T06:50:43;7.56;75.38
65876;HTU21D;52657;51.128;5.938;2023-11-22T06:53:10;7.58;75.47
65876;HTU21D;52657;51.128;5.938;2023-11-22T06:55:37;7.58;75.37
65876;HTU21D;52657;51.128;5.938;2023-11-22T06:58:04;7.62;75.38
65876;HTU21D;52657;51.128;5.938;2023-11-22T07:00:31;7.65;75.21
65876;HTU21D;52657;51.128;5.938;2023-11-22T07:02:58;7.68;75.25
65876;HTU21D;52657;51.128;5.938;2023-11-22T07:05:24;7.71;75.34
65876;HTU21D;52657;51.128;5.938;2023-11-22T07:07:50;7.72;75.37
65876;HTU21D;52657;51.128;5.938;2023-11-22T07:10:16;7.76;75.41
65876;HTU21D;52657;51.128;5.938;2023-11-22T07:12:41;7.82;75.22
65876;HTU21D;52657;51.128;5.938;2023-11-22T07:15:09;7.85;74.85
65876;HTU21D;52657;51.128;5.938;2023-11-22T07:17:35;7.82;74.94
65876;HTU21D;52657;51.128;5.938;2023-11-22T07:20:02;7.84;74.82
65876;HTU21D;52657;51.128;5.938;2023-11-22T07:22:28;7.85;74.70
65876;HTU21D;52657;51.128;5.938;2023-11-22T07:24:56;7.86;74.57
65876;HTU21D;52657;51.128;5.938;2023-11-22T07:27:25;7.86;74.44
65876;HTU21D;52657;51.128;5.938;2023-11-22T07:29:51;7.84;74.46
65876;HTU21D;52657;51.128;5.938;2023-11-22T07:32:17;7.84;74.53
65876;HTU21D;52657;51.128;5.938;2023-11-22T07:34:45;7.83;74.60
65876;HTU21D;52657;51.128;5.938;2023-11-22T07:37:11;7.82;74.54
65876;HTU21D;52657;51.128;5.938;2023-11-22T07:39:38;7.81;74.80
65876;HTU21D;52657;51.128;5.938;2023-11-22T07:42:05;7.81;74.92
65876;HTU21D;52657;51.128;5.938;2023-11-22T07:44:37;7.85;74.94
65876;HTU21D;52657;51.128;5.938;2023-11-22T07:47:03;7.86;74.97
65876;HTU21D;52657;51.128;5.938;2023-11-22T07:49:33;7.86;74.90
65876;HTU21D;52657;51.128;5.938;2023-11-22T07:52:03;7.87;74.92
65876;HTU21D;52657;51.128;5.938;2023-11-22T07:54:28;7.84;74.74
65876;HTU21D;52657;51.128;5.938;2023-11-22T07:56:56;7.78;74.66
65876;HTU21D;52657;51.128;5.938;2023-11-22T07:59:22;7.75;74.73
65876;HTU21D;52657;51.128;5.938;2023-11-22T08:01:48;7.69;74.67
65876;HTU21D;52657;51.128;5.938;2023-11-22T08:04:15;7.73;74.76
65876;HTU21D;52657;51.128;5.938;2023-11-22T08:06:42;7.68;74.67
65876;HTU21D;52657;51.128;5.938;2023-11-22T08:09:08;7.65;74.78
65876;HTU21D;52657;51.128;5.938;2023-11-22T08:11:35;7.63;74.59
65876;HTU21D;52657;51.128;5.938;2023-11-22T08:14:02;7.67;74.51
65876;HTU21D;52657;51.128;5.938;2023-11-22T08:16:29;7.65;74.51
65876;HTU21D;52657;51.128;5.938;2023-11-22T08:18:55;7.65;74.22
65876;HTU21D;52657;51.128;5.938;2023-11-22T08:21:22;7.69;74.06
65876;HTU21D;52657;51.128;5.938;2023-11-22T08:23:49;7.72;74.08
65876;HTU21D;52657;51.128;5.938;2023-11-22T08:26:15;7.72;73.93
65876;HTU21D;52657;51.128;5.938;2023-11-22T08:28:41;7.71;74.09
65876;HTU21D;52657;51.128;5.938;2023-11-22T08:31:08;7.74;73.90
65876;HTU21D;52657;51.128;5.938;2023-11-22T08:33:37;7.70;73.82
65876;HTU21D;52657;51.128;5.938;2023-11-22T08:36:05;7.68;73.78
65876;HTU21D;52657;51.128;5.938;2023-11-22T08:38:31;7.67;73.99
65876;HTU21D;52657;51.128;5.938;2023-11-22T08:41:06;7.68;74.37
65876;HTU21D;52657;51.128;5.938;2023-11-22T08:43:32;7.70;74.68
65876;HTU21D;52657;51.128;5.938;2023-11-22T08:45:58;7.78;74.60
65876;HTU21D;52657;51.128;5.938;2023-11-22T08:48:24;7.85;74.08
65876;HTU21D;52657;51.128;5.938;2023-11-22T08:50:50;7.84;74.04
65876;HTU21D;52657;51.128;5.938;2023-11-22T08:53:19;7.90;73.93
65876;HTU21D;52657;51.128;5.938;2023-11-22T08:55:47;7.97;73.55
65876;HTU21D;52657;51.128;5.938;2023-11-22T08:58:12;8.06;73.30
65876;HTU21D;52657;51.128;5.938;2023-11-22T09:00:39;8.15;72.91
65876;HTU21D;52657;51.128;5.938;2023-11-22T09:03:10;8.19;73.11
65876;HTU21D;52657;51.128;5.938;2023-11-22T09:05:42;8.26;73.18
65876;HTU21D;52657;51.128;5.938;2023-11-22T09:08:09;8.29;73.32
65876;HTU21D;52657;51.128;5.938;2023-11-22T09:10:41;8.38;73.14
65876;HTU21D;52657;51.128;5.938;2023-11-22T09:13:08;8.46;72.85
65876;HTU21D;52657;51.128;5.938;2023-11-22T09:15:34;8.55;72.80
65876;HTU21D;52657;51.128;5.938;2023-11-22T09:18:00;8.67;72.71
65876;HTU21D;52657;51.128;5.938;2023-11-22T09:20:26;8.81;72.49
65876;HTU21D;52657;51.128;5.938;2023-11-22T09:22:53;8.93;71.89
65876;HTU21D;52657;51.128;5.938;2023-11-22T09:25:27;8.96;71.00
65876;HTU21D;52657;51.128;5.938;2023-11-22T09:27:57;8.88;69.74
65876;HTU21D;52657;51.128;5.938;2023-11-22T09:30:28;8.80;69.56
65876;HTU21D;52657;51.128;5.938;2023-11-22T09:33:11;8.79;69.28
65876;HTU21D;52657;51.128;5.938;2023-11-22T09:35:38;8.81;69.02
65876;HTU21D;52657;51.128;5.938;2023-11-22T09:38:08;8.89;69.04
65876;HTU21D;52657;51.128;5.938;2023-11-22T09:40:43;8.91;69.25
65876;HTU21D;52657;51.128;5.938;2023-11-22T09:43:12;9.04;69.68
65876;HTU21D;52657;51.128;5.938;2023-11-22T09:45:41;9.18;69.60
65876;HTU21D;52657;51.128;5.938;2023-11-22T09:48:25;9.44;69.78
65876;HTU21D;52657;51.128;5.938;2023-11-22T09:51:05;9.74;69.20
65876;HTU21D;52657;51.128;5.938;2023-11-22T09:54:18;9.98;68.50
65876;HTU21D;52657;51.128;5.938;2023-11-22T09:56:30;10.31;67.42
65876;HTU21D;52657;51.128;5.938;2023-11-22T09:59:00;10.40;65.43
65876;HTU21D;52657;51.128;5.938;2023-11-22T10:01:30;10.30;65.21
65876;HTU21D;52657;51.128;5.938;2023-11-22T10:04:03;10.35;66.00
65876;HTU21D;52657;51.128;5.938;2023-11-22T10:06:34;10.43;65.87
65876;HTU21D;52657;51.128;5.938;2023-11-22T10:09:02;10.44;65.01
65876;HTU21D;52657;51.128;5.938;2023-11-22T10:11:35;10.40;64.95
65876;HTU21D;52657;51.128;5.938;2023-11-22T10:14:04;10.40;65.12
65876;HTU21D;52657;51.128;5.938;2023-11-22T10:16:31;10.38;65.18
65876;HTU21D;52657;51.128;5.938;2023-11-22T10:18:57;10.36;65.39
65876;HTU21D;52657;51.128;5.938;2023-11-22T10:21:28;10.35;65.38
65876;HTU21D;52657;51.128;5.938;2023-11-22T10:23:57;10.37;65.10
65876;HTU21D;52657;51.128;5.938;2023-11-22T10:26:25;10.30;64.63
65876;HTU21D;52657;51.128;5.938;2023-11-22T10:28:56;10.27;64.47
65876;HTU21D;52657;51.128;5.938;2023-11-22T10:31:23;10.25;64.49
65876;HTU21D;52657;51.128;5.938;2023-11-22T10:33:50;10.23;64.27
65876;HTU21D;52657;51.128;5.938;2023-11-22T10:36:16;10.20;64.10
65876;HTU21D;52657;51.128;5.938;2023-11-22T10:38:47;10.22;64.40
65876;HTU21D;52657;51.128;5.938;2023-11-22T10:41:13;10.25;64.19
65876;HTU21D;52657;51.128;5.938;2023-11-22T10:43:41;10.27;63.91
65876;HTU21D;52657;51.128;5.938;2023-11-22T10:46:08;10.31;63.68
65876;HTU21D;52657;51.128;5.938;2023-11-22T10:48:38;10.35;64.14
65876;HTU21D;52657;51.128;5.938;2023-11-22T10:51:05;10.40;64.71
65876;HTU21D;52657;51.128;5.938;2023-11-22T10:53:33;10.45;64.56
65876;HTU21D;52657;51.128;5.938;2023-11-22T10:56:07;10.52;64.24
65876;HTU21D;52657;51.128;5.938;2023-11-22T11:01:10;10.56;63.95
65876;HTU21D;52657;51.128;5.938;2023-11-22T11:03:40;10.54;63.98
65876;HTU21D;52657;51.128;5.938;2023-11-22T11:06:09;10.57;64.14
65876;HTU21D;52657;51.128;5.938;2023-11-22T11:08:39;10.52;63.15
65876;HTU21D;52657;51.128;5.938;2023-11-22T11:11:05;10.48;62.94
65876;HTU21D;52657;51.128;5.938;2023-11-22T11:13:32;10.45;62.65
65876;HTU21D;52657;51.128;5.938;2023-11-22T11:15:59;10.41;62.80
65876;HTU21D;52657;51.128;5.938;2023-11-22T11:18:26;10.40;62.47
65876;HTU21D;52657;51.128;5.938;2023-11-22T11:20:58;10.41;62.58
65876;HTU21D;52657;51.128;5.938;2023-11-22T11:23:26;10.44;62.38
65876;HTU21D;52657;51.128;5.938;2023-11-22T11:25:57;10.50;62.96
65876;HTU21D;52657;51.128;5.938;2023-11-22T11:28:26;10.46;62.32
65876;HTU21D;52657;51.128;5.938;2023-11-22T11:30:53;10.43;62.77
65876;HTU21D;52657;51.128;5.938;2023-11-22T11:33:28;10.44;62.82
65876;HTU21D;52657;51.128;5.938;2023-11-22T11:35:57;10.46;62.44
65876;HTU21D;52657;51.128;5.938;2023-11-22T11:38:39;10.46;63.08
65876;HTU21D;52657;51.128;5.938;2023-11-22T11:41:11;10.41;62.92
65876;HTU21D;52657;51.128;5.938;2023-11-22T11:43:47;10.40;63.37
65876;HTU21D;52657;51.128;5.938;2023-11-22T11:46:15;10.46;63.11
65876;HTU21D;52657;51.128;5.938;2023-11-22T11:48:45;10.49;62.05
65876;HTU21D;52657;51.128;5.938;2023-11-22T11:51:23;10.46;62.01
65876;HTU21D;52657;51.128;5.938;2023-11-22T11:53:50;10.39;61.85
65876;HTU21D;52657;51.128;5.938;2023-11-22T11:56:16;10.30;62.11
65876;HTU21D;52657;51.128;5.938;2023-11-22T11:58:44;10.30;62.93
65876;HTU21D;52657;51.128;5.938;2023-11-22T12:01:14;10.35;62.60
65876;HTU21D;52657;51.128;5.938;2023-11-22T12:03:42;10.42;62.86
65876;HTU21D;52657;51.128;5.938;2023-11-22T12:06:15;10.45;62.69
65876;HTU21D;52657;51.128;5.938;2023-11-22T12:08:42;10.51;62.65
65876;HTU21D;52657;51.128;5.938;2023-11-22T12:11:08;10.49;62.25
65876;HTU21D;52657;51.128;5.938;2023-11-22T12:13:35;10.43;62.49
65876;HTU21D;52657;51.128;5.938;2023-11-22T12:16:05;10.38;62.76
65876;HTU21D;52657;51.128;5.938;2023-11-22T12:18:49;10.35;62.86
65876;HTU21D;52657;51.128;5.938;2023-11-22T12:21:18;10.35;62.95
65876;HTU21D;52657;51.128;5.938;2023-11-22T12:23:46;10.31;63.05
65876;HTU21D;52657;51.128;5.938;2023-11-22T12:26:17;10.27;63.05
65876;HTU21D;52657;51.128;5.938;2023-11-22T12:28:47;10.21;63.15
65876;HTU21D;52657;51.128;5.938;2023-11-22T12:31:14;10.21;63.46
65876;HTU21D;52657;51.128;5.938;2023-11-22T12:33:42;10.19;63.17
65876;HTU21D;52657;51.128;5.938;2023-11-22T12:36:10;10.22;63.43
65876;HTU21D;52657;51.128;5.938;2023-11-22T12:38:37;10.23;63.22
65876;HTU21D;52657;51.128;5.938;2023-11-22T12:41:05;10.22;63.17
65876;HTU21D;52657;51.128;5.938;2023-11-22T12:43:33;10.14;63.38
65876;HTU21D;52657;51.128;5.938;2023-11-22T12:46:00;10.13;63.00
65876;HTU21D;52657;51.128;5.938;2023-11-22T12:48:26;10.12;62.91
65876;HTU21D;52657;51.128;5.938;2023-11-22T12:50:56;10.09;62.76
65876;HTU21D;52657;51.128;5.938;2023-11-22T12:53:23;10.10;63.15
65876;HTU21D;52657;51.128;5.938;2023-11-22T12:55:52;10.18;63.58
65876;HTU21D;52657;51.128;5.938;2023-11-22T12:58:19;10.21;63.20
65876;HTU21D;52657;51.128;5.938;2023-11-22T13:00:47;10.27;63.49
65876;HTU21D;52657;51.128;5.938;2023-11-22T13:03:13;10.34;63.28
65876;HTU21D;52657;51.128;5.938;2023-11-22T13:05:44;10.33;62.51
65876;HTU21D;52657;51.128;5.938;2023-11-22T13:08:11;10.23;62.34
65876;HTU21D;52657;51.128;5.938;2023-11-22T13:10:46;10.23;62.76
65876;HTU21D;52657;51.128;5.938;2023-11-22T13:13:17;10.16;62.76
65876;HTU21D;52657;51.128;5.938;2023-11-22T13:15:42;10.14;62.98
65876;HTU21D;52657;51.128;5.938;2023-11-22T13:18:08;10.20;63.25
65876;HTU21D;52657;51.128;5.938;2023-11-22T13:20:34;10.24;63.08
65876;HTU21D;52657;51.128;5.938;2023-11-22T13:23:01;10.22;62.81
65876;HTU21D;52657;51.128;5.938;2023-11-22T13:25:28;10.27;62.97
65876;HTU21D;52657;51.128;5.938;2023-11-22T13:27:53;10.28;62.97
65876;HTU21D;52657;51.128;5.938;2023-11-22T13:30:22;10.25;62.63
65876;HTU21D;52657;51.128;5.938;2023-11-22T13:32:49;10.22;62.96
65876;HTU21D;52657;51.128;5.938;2023-11-22T13:35:15;10.19;63.07
65876;HTU21D;52657;51.128;5.938;2023-11-22T13:37:46;10.26;63.15
65876;HTU21D;52657;51.128;5.938;2023-11-22T13:40:15;10.22;63.24
65876;HTU21D;52657;51.128;5.938;2023-11-22T13:42:46;10.18;63.40
65876;HTU21D;52657;51.128;5.938;2023-11-22T13:45:15;10.20;63.95
65876;HTU21D;52657;51.128;5.938;2023-11-22T13:47:44;10.28;64.25
65876;HTU21D;52657;51.128;5.938;2023-11-22T13:50:16;10.34;63.98
65876;HTU21D;52657;51.128;5.938;2023-11-22T13:52:45;10.31;64.40
65876;HTU21D;52657;51.128;5.938;2023-11-22T13:55:14;10.31;63.82
65876;HTU21D;52657;51.128;5.938;2023-11-22T13:57:42;10.23;63.49
65876;HTU21D;52657;51.128;5.938;2023-11-22T14:00:09;10.16;63.47
65876;HTU21D;52657;51.128;5.938;2023-11-22T14:02:36;10.13;63.60
65876;HTU21D;52657;51.128;5.938;2023-11-22T14:05:03;10.13;63.63
65876;HTU21D;52657;51.128;5.938;2023-11-22T14:07:35;10.11;63.66
65876;HTU21D;52657;51.128;5.938;2023-11-22T14:10:05;10.14;63.71
65876;HTU21D;52657;51.128;5.938;2023-11-22T14:12:31;10.21;63.73
65876;HTU21D;52657;51.128;5.938;2023-11-22T14:15:00;10.25;63.30
65876;HTU21D;52657;51.128;5.938;2023-11-22T14:17:26;10.22;63.24
65876;HTU21D;52657;51.128;5.938;2023-11-22T14:19:53;10.25;63.45
65876;HTU21D;52657;51.128;5.938;2023-11-22T14:22:21;10.31;63.39
65876;HTU21D;52657;51.128;5.938;2023-11-22T14:24:48;10.33;62.96
65876;HTU21D;52657;51.128;5.938;2023-11-22T14:27:14;10.30;62.92
65876;HTU21D;52657;51.128;5.938;2023-11-22T14:29:41;10.28;63.04
65876;HTU21D;52657;51.128;5.938;2023-11-22T14:32:08;10.22;62.98
65876;HTU21D;52657;51.128;5.938;2023-11-22T14:34:34;10.19;62.73
65876;HTU21D;52657;51.128;5.938;2023-11-22T14:37:00;10.16;62.57
65876;HTU21D;52657;51.128;5.938;2023-11-22T14:39:26;10.15;62.57
65876;HTU21D;52657;51.128;5.938;2023-11-22T14:41:53;10.16;62.66
65876;HTU21D;52657;51.128;5.938;2023-11-22T14:44:21;10.19;62.59
65876;HTU21D;52657;51.128;5.938;2023-11-22T14:46:47;10.21;62.57
65876;HTU21D;52657;51.128;5.938;2023-11-22T14:49:13;10.22;62.57
65876;HTU21D;52657;51.128;5.938;2023-11-22T14:51:41;10.22;62.77
65876;HTU21D;52657;51.128;5.938;2023-11-22T14:54:07;10.16;63.05
65876;HTU21D;52657;51.128;5.938;2023-11-22T14:56:33;10.21;63.34
65876;HTU21D;52657;51.128;5.938;2023-11-22T14:59:00;10.19;62.82
65876;HTU21D;52657;51.128;5.938;2023-11-22T15:01:27;10.19;62.73
65876;HTU21D;52657;51.128;5.938;2023-11-22T15:03:52;10.16;62.76
65876;HTU21D;52657;51.128;5.938;2023-11-22T15:06:22;10.18;63.06
65876;HTU21D;52657;51.128;5.938;2023-11-22T15:08:48;10.15;63.12
65876;HTU21D;52657;51.128;5.938;2023-11-22T15:11:14;10.12;62.86
65876;HTU21D;52657;51.128;5.938;2023-11-22T15:13:44;10.13;63.19
65876;HTU21D;52657;51.128;5.938;2023-11-22T15:16:10;10.13;63.27
65876;HTU21D;52657;51.128;5.938;2023-11-22T15:18:42;10.16;63.24
65876;HTU21D;52657;51.128;5.938;2023-11-22T15:21:08;10.19;63.02
65876;HTU21D;52657;51.128;5.938;2023-11-22T15:23:33;10.19;63.12
65876;HTU21D;52657;51.128;5.938;2023-11-22T15:25:59;10.21;62.87
65876;HTU21D;52657;51.128;5.938;2023-11-22T15:28:25;10.22;62.73